sensor_id;sensor_type;location;lat;lon;timestamp;temperature;humidity
33673;DHT22;20011;51.510;9.942;2023-07-22T00:06:49;16.20;99.90
33673;DHT22;20011;51.510;9.942;2023-07-22T00:14:12;16.20;99.90
33673;DHT22;20011;51.510;9.942;2023-07-22T00:16:39;16.20;99.90
33673;DHT22;20011;51.510;9.942;2023-07-22T00:19:06;16.30;99.90
33673;DHT22;20011;51.510;9.942;2023-07-22T00:24:01;16.10;99.90
33673;DHT22;20011;51.510;9.942;2023-07-22T00:28:56;16.10;99.90
33673;DHT22;20011;51.510;9.942;2023-07-22T00:36:18;16.10;99.90
33673;DHT22;20011;51.510;9.942;2023-07-22T00:46:09;16.10;99.90
33673;DHT22;20011;51.510;9.942;2023-07-22T00:56:03;15.90;99.90
33673;DHT22;20011;51.510;9.942;2023-07-22T01:25:36;15.60;99.90
33673;DHT22;20011;51.510;9.942;2023-07-22T01:28:09;15.60;99.90
33673;DHT22;20011;51.510;9.942;2023-07-22T01:38:02;15.50;99.90
33673;DHT22;20011;51.510;9.942;2023-07-22T01:45:26;15.50;99.90
33673;DHT22;20011;51.510;9.942;2023-07-22T02:00:12;15.40;99.90
33673;DHT22;20011;51.510;9.942;2023-07-22T02:05:08;15.40;99.90
33673;DHT22;20011;51.510;9.942;2023-07-22T02:15:04;15.40;99.90
33673;DHT22;20011;51.510;9.942;2023-07-22T02:52:04;15.20;99.90
33673;DHT22;20011;51.510;9.942;2023-07-22T02:54:31;15.40;99.90
33673;DHT22;20011;51.510;9.942;2023-07-22T03:04:24;15.20;99.90
33673;DHT22;20011;51.510;9.942;2023-07-22T03:14:18;15.10;99.90
33673;DHT22;20011;51.510;9.942;2023-07-22T03:43:58;14.90;99.90
33673;DHT22;20011;51.510;9.942;2023-07-22T03:53:51;14.90;99.90
33673;DHT22;20011;51.510;9.942;2023-07-22T04:30:58;15.20;99.90
33673;DHT22;20011;51.510;9.942;2023-07-22T04:35:57;15.30;99.90
33673;DHT22;20011;51.510;9.942;2023-07-22T04:38:25;15.20;99.90
33673;DHT22;20011;51.510;9.942;2023-07-22T04:48:23;15.50;99.90
33673;DHT22;20011;51.510;9.942;2023-07-22T04:51:00;15.70;99.90
33673;DHT22;20011;51.510;9.942;2023-07-22T05:05:53;15.80;99.90
33673;DHT22;20011;51.510;9.942;2023-07-22T05:15:43;15.90;99.90
33673;DHT22;20011;51.510;9.942;2023-07-22T05:35:30;15.90;99.90
33673;DHT22;20011;51.510;9.942;2023-07-22T05:42:52;15.90;99.90
33673;DHT22;20011;51.510;9.942;2023-07-22T05:45:19;16.20;99.90
33673;DHT22;20011;51.510;9.942;2023-07-22T05:47:46;16.20;99.90
33673;DHT22;20011;51.510;9.942;2023-07-22T05:52:42;16.10;99.90
33673;DHT22;20011;51.510;9.942;2023-07-22T06:00:12;16.20;99.90
33673;DHT22;20011;51.510;9.942;2023-07-22T06:02:40;16.20;99.90
33673;DHT22;20011;51.510;9.942;2023-07-22T06:07:44;16.30;99.90
33673;DHT22;20011;51.510;9.942;2023-07-22T06:13:11;16.40;99.90
33673;DHT22;20011;51.510;9.942;2023-07-22T06:16:17;16.40;99.90
33673;DHT22;20011;51.510;9.942;2023-07-22T06:19:16;16.40;99.90
33673;DHT22;20011;51.510;9.942;2023-07-22T06:24:32;16.50;99.90
33673;DHT22;20011;51.510;9.942;2023-07-22T06:27:11;17.10;99.90
33673;DHT22;20011;51.510;9.942;2023-07-22T06:30:17;17.00;99.90
33673;DHT22;20011;51.510;9.942;2023-07-22T06:32:49;16.70;99.90
33673;DHT22;20011;51.510;9.942;2023-07-22T06:35:31;16.70;99.90
33673;DHT22;20011;51.510;9.942;2023-07-22T06:38:19;16.80;99.90
33673;DHT22;20011;51.510;9.942;2023-07-22T06:41:17;14.90;99.90
33673;DHT22;20011;51.510;9.942;2023-07-22T06:44:08;16.80;99.90
33673;DHT22;20011;51.510;9.942;2023-07-22T06:47:06;17.40;99.90
33673;DHT22;20011;51.510;9.942;2023-07-22T06:52:05;16.90;99.90
33673;DHT22;20011;51.510;9.942;2023-07-22T06:54:33;16.90;99.90
33673;DHT22;20011;51.510;9.942;2023-07-22T06:57:01;17.00;99.90
33673;DHT22;20011;51.510;9.942;2023-07-22T07:04:27;17.10;99.90
33673;DHT22;20011;51.510;9.942;2023-07-22T07:06:54;17.50;99.90
33673;DHT22;20011;51.510;9.942;2023-07-22T07:09:21;17.10;99.90
33673;DHT22;20011;51.510;9.942;2023-07-22T07:19:13;17.20;99.90
33673;DHT22;20011;51.510;9.942;2023-07-22T07:24:08;17.20;99.90
33673;DHT22;20011;51.510;9.942;2023-07-22T07:26:36;17.30;99.90
33673;DHT22;20011;51.510;9.942;2023-07-22T07:31:31;17.20;99.90
33673;DHT22;20011;51.510;9.942;2023-07-22T07:33:59;17.20;99.90
33673;DHT22;20011;51.510;9.942;2023-07-22T07:41:24;17.20;99.90
33673;DHT22;20011;51.510;9.942;2023-07-22T07:43:52;17.20;99.90
33673;DHT22;20011;51.510;9.942;2023-07-22T07:46:23;17.20;99.90
33673;DHT22;20011;51.510;9.942;2023-07-22T07:48:56;17.30;99.90
33673;DHT22;20011;51.510;9.942;2023-07-22T07:54:09;17.30;99.90
33673;DHT22;20011;51.510;9.942;2023-07-22T07:56:36;17.40;99.90
33673;DHT22;20011;51.510;9.942;2023-07-22T07:59:03;17.50;99.90
33673;DHT22;20011;51.510;9.942;2023-07-22T08:01:32;17.50;99.90
33673;DHT22;20011;51.510;9.942;2023-07-22T08:03:59;17.50;99.90
33673;DHT22;20011;51.510;9.942;2023-07-22T08:06:27;17.60;99.90
33673;DHT22;20011;51.510;9.942;2023-07-22T08:08:55;17.60;99.90
33673;DHT22;20011;51.510;9.942;2023-07-22T08:11:22;17.80;99.90
33673;DHT22;20011;51.510;9.942;2023-07-22T08:16:18;17.80;99.90
33673;DHT22;20011;51.510;9.942;2023-07-22T08:18:46;17.70;99.90
33673;DHT22;20011;51.510;9.942;2023-07-22T08:21:14;18.30;99.90
33673;DHT22;20011;51.510;9.942;2023-07-22T08:23:42;17.80;99.90
33673;DHT22;20011;51.510;9.942;2023-07-22T08:26:13;17.80;99.90
33673;DHT22;20011;51.510;9.942;2023-07-22T08:28:40;18.10;99.90
33673;DHT22;20011;51.510;9.942;2023-07-22T08:33:35;17.90;99.90
33673;DHT22;20011;51.510;9.942;2023-07-22T08:36:08;17.90;99.90
33673;DHT22;20011;51.510;9.942;2023-07-22T08:38:36;17.90;99.90
33673;DHT22;20011;51.510;9.942;2023-07-22T08:41:03;18.20;99.90
33673;DHT22;20011;51.510;9.942;2023-07-22T08:43:32;17.90;99.90
33673;DHT22;20011;51.510;9.942;2023-07-22T08:46:01;18.20;99.90
33673;DHT22;20011;51.510;9.942;2023-07-22T08:48:31;18.20;99.90
33673;DHT22;20011;51.510;9.942;2023-07-22T08:51:15;17.80;99.90
33673;DHT22;20011;51.510;9.942;2023-07-22T08:53:47;17.90;99.90
33673;DHT22;20011;51.510;9.942;2023-07-22T08:56:34;18.10;99.90
33673;DHT22;20011;51.510;9.942;2023-07-22T08:59:03;17.90;99.90
33673;DHT22;20011;51.510;9.942;2023-07-22T09:01:32;18.00;99.90
33673;DHT22;20011;51.510;9.942;2023-07-22T09:04:00;18.00;99.90
33673;DHT22;20011;51.510;9.942;2023-07-22T09:06:27;18.00;99.90
33673;DHT22;20011;51.510;9.942;2023-07-22T09:08:56;18.00;99.90
33673;DHT22;20011;51.510;9.942;2023-07-22T09:11:25;18.00;99.90
33673;DHT22;20011;51.510;9.942;2023-07-22T09:13:53;18.10;99.90
33673;DHT22;20011;51.510;9.942;2023-07-22T09:18:50;18.10;99.90
33673;DHT22;20011;51.510;9.942;2023-07-22T09:21:17;18.10;99.90
33673;DHT22;20011;51.510;9.942;2023-07-22T09:26:14;18.20;99.90
33673;DHT22;20011;51.510;9.942;2023-07-22T09:28:58;18.30;99.90
33673;DHT22;20011;51.510;9.942;2023-07-22T09:31:26;18.30;99.90
33673;DHT22;20011;51.510;9.942;2023-07-22T09:33:55;18.30;99.90
33673;DHT22;20011;51.510;9.942;2023-07-22T09:36:50;18.60;99.90
33673;DHT22;20011;51.510;9.942;2023-07-22T09:39:18;18.30;99.90
33673;DHT22;20011;51.510;9.942;2023-07-22T09:41:45;18.30;99.90
33673;DHT22;20011;51.510;9.942;2023-07-22T09:44:12;18.40;99.90
33673;DHT22;20011;51.510;9.942;2023-07-22T09:46:40;18.40;99.90
33673;DHT22;20011;51.510;9.942;2023-07-22T09:49:09;18.50;99.90
33673;DHT22;20011;51.510;9.942;2023-07-22T09:51:39;18.50;99.90
33673;DHT22;20011;51.510;9.942;2023-07-22T09:54:27;18.50;99.90
33673;DHT22;20011;51.510;9.942;2023-07-22T09:56:58;18.60;99.90
33673;DHT22;20011;51.510;9.942;2023-07-22T09:59:29;18.50;99.90
33673;DHT22;20011;51.510;9.942;2023-07-22T10:01:56;18.60;99.90
33673;DHT22;20011;51.510;9.942;2023-07-22T10:04:34;18.70;99.90
33673;DHT22;20011;51.510;9.942;2023-07-22T10:07:03;18.70;99.90
33673;DHT22;20011;51.510;9.942;2023-07-22T10:09:33;18.80;99.90
33673;DHT22;20011;51.510;9.942;2023-07-22T10:12:02;18.70;99.90
33673;DHT22;20011;51.510;9.942;2023-07-22T10:14:31;18.70;99.90
33673;DHT22;20011;51.510;9.942;2023-07-22T10:17:03;18.70;99.90
33673;DHT22;20011;51.510;9.942;2023-07-22T10:19:31;18.70;99.90
33673;DHT22;20011;51.510;9.942;2023-07-22T10:22:00;18.60;99.90
33673;DHT22;20011;51.510;9.942;2023-07-22T10:24:27;18.70;99.90
33673;DHT22;20011;51.510;9.942;2023-07-22T10:26:55;18.70;99.90
33673;DHT22;20011;51.510;9.942;2023-07-22T10:29:25;18.70;99.90
33673;DHT22;20011;51.510;9.942;2023-07-22T10:31:54;18.70;99.90
33673;DHT22;20011;51.510;9.942;2023-07-22T10:34:21;18.80;99.90
33673;DHT22;20011;51.510;9.942;2023-07-22T10:36:50;18.80;99.90
33673;DHT22;20011;51.510;9.942;2023-07-22T10:39:25;18.90;99.90
33673;DHT22;20011;51.510;9.942;2023-07-22T10:42:03;18.90;99.90
33673;DHT22;20011;51.510;9.942;2023-07-22T10:44:39;18.90;99.90
33673;DHT22;20011;51.510;9.942;2023-07-22T10:47:07;18.90;99.90
33673;DHT22;20011;51.510;9.942;2023-07-22T10:49:47;18.90;99.90
33673;DHT22;20011;51.510;9.942;2023-07-22T10:52:42;18.90;99.90
33673;DHT22;20011;51.510;9.942;2023-07-22T10:55:19;18.90;99.90
33673;DHT22;20011;51.510;9.942;2023-07-22T10:57:53;19.30;99.90
33673;DHT22;20011;51.510;9.942;2023-07-22T11:00:23;18.80;99.90
33673;DHT22;20011;51.510;9.942;2023-07-22T11:03:14;18.90;99.90
33673;DHT22;20011;51.510;9.942;2023-07-22T11:05:50;18.90;99.90
33673;DHT22;20011;51.510;9.942;2023-07-22T11:08:35;19.00;99.90
33673;DHT22;20011;51.510;9.942;2023-07-22T11:11:03;19.00;99.90
33673;DHT22;20011;51.510;9.942;2023-07-22T11:13:37;19.00;99.90
33673;DHT22;20011;51.510;9.942;2023-07-22T11:16:10;19.10;99.90
33673;DHT22;20011;51.510;9.942;2023-07-22T11:18:41;19.10;99.90
33673;DHT22;20011;51.510;9.942;2023-07-22T11:21:12;19.20;99.90
33673;DHT22;20011;51.510;9.942;2023-07-22T11:23:40;19.20;99.90
33673;DHT22;20011;51.510;9.942;2023-07-22T11:26:07;19.20;99.90
33673;DHT22;20011;51.510;9.942;2023-07-22T11:28:34;19.60;99.90
33673;DHT22;20011;51.510;9.942;2023-07-22T11:31:01;19.10;99.90
33673;DHT22;20011;51.510;9.942;2023-07-22T11:33:38;19.10;99.90
33673;DHT22;20011;51.510;9.942;2023-07-22T11:36:06;19.10;99.90
33673;DHT22;20011;51.510;9.942;2023-07-22T11:38:34;19.10;99.90
33673;DHT22;20011;51.510;9.942;2023-07-22T11:41:03;19.20;99.90
33673;DHT22;20011;51.510;9.942;2023-07-22T11:43:31;19.10;99.90
33673;DHT22;20011;51.510;9.942;2023-07-22T11:45:59;19.10;99.90
33673;DHT22;20011;51.510;9.942;2023-07-22T11:48:26;19.10;99.90
33673;DHT22;20011;51.510;9.942;2023-07-22T11:50:58;19.10;99.90
33673;DHT22;20011;51.510;9.942;2023-07-22T11:53:27;19.10;99.90
33673;DHT22;20011;51.510;9.942;2023-07-22T11:55:59;19.30;99.90
33673;DHT22;20011;51.510;9.942;2023-07-22T11:58:27;19.10;99.90
33673;DHT22;20011;51.510;9.942;2023-07-22T12:01:10;19.20;99.90
33673;DHT22;20011;51.510;9.942;2023-07-22T12:03:54;19.50;99.90
33673;DHT22;20011;51.510;9.942;2023-07-22T12:06:25;19.30;99.90
33673;DHT22;20011;51.510;9.942;2023-07-22T12:08:55;19.30;99.90
33673;DHT22;20011;51.510;9.942;2023-07-22T12:11:23;19.40;99.90
33673;DHT22;20011;51.510;9.942;2023-07-22T12:16:35;19.40;99.90
33673;DHT22;20011;51.510;9.942;2023-07-22T12:19:04;19.40;99.90
33673;DHT22;20011;51.510;9.942;2023-07-22T12:21:32;19.40;99.90
33673;DHT22;20011;51.510;9.942;2023-07-22T12:24:00;19.40;99.90
33673;DHT22;20011;51.510;9.942;2023-07-22T12:26:27;19.90;99.90
33673;DHT22;20011;51.510;9.942;2023-07-22T12:28:54;19.50;99.90
33673;DHT22;20011;51.510;9.942;2023-07-22T12:31:22;19.60;99.90
33673;DHT22;20011;51.510;9.942;2023-07-22T12:33:49;19.60;99.90
33673;DHT22;20011;51.510;9.942;2023-07-22T12:36:16;19.60;99.90
33673;DHT22;20011;51.510;9.942;2023-07-22T12:38:43;19.60;99.90
33673;DHT22;20011;51.510;9.942;2023-07-22T12:41:11;19.70;99.90
33673;DHT22;20011;51.510;9.942;2023-07-22T12:43:38;19.70;99.90
33673;DHT22;20011;51.510;9.942;2023-07-22T12:46:05;19.80;99.90
33673;DHT22;20011;51.510;9.942;2023-07-22T12:48:33;19.70;99.90
33673;DHT22;20011;51.510;9.942;2023-07-22T12:51:00;19.70;99.90
33673;DHT22;20011;51.510;9.942;2023-07-22T12:53:27;19.80;99.90
33673;DHT22;20011;51.510;9.942;2023-07-22T12:55:59;19.80;99.90
33673;DHT22;20011;51.510;9.942;2023-07-22T12:58:26;19.80;99.90
33673;DHT22;20011;51.510;9.942;2023-07-22T13:00:53;19.80;99.90
33673;DHT22;20011;51.510;9.942;2023-07-22T13:03:20;19.80;99.90
33673;DHT22;20011;51.510;9.942;2023-07-22T13:05:47;19.80;99.90
33673;DHT22;20011;51.510;9.942;2023-07-22T13:08:15;19.80;99.90
33673;DHT22;20011;51.510;9.942;2023-07-22T13:10:42;20.20;99.90
33673;DHT22;20011;51.510;9.942;2023-07-22T13:13:11;19.80;99.90
33673;DHT22;20011;51.510;9.942;2023-07-22T13:15:38;19.80;99.90
33673;DHT22;20011;51.510;9.942;2023-07-22T13:18:06;19.80;99.90
33673;DHT22;20011;51.510;9.942;2023-07-22T13:20:34;19.80;99.90
33673;DHT22;20011;51.510;9.942;2023-07-22T13:23:01;19.80;99.90
33673;DHT22;20011;51.510;9.942;2023-07-22T13:25:28;19.80;99.90
33673;DHT22;20011;51.510;9.942;2023-07-22T13:27:55;19.90;99.50
33673;DHT22;20011;51.510;9.942;2023-07-22T13:30:22;19.90;98.30
33673;DHT22;20011;51.510;9.942;2023-07-22T13:32:49;19.90;98.30
33673;DHT22;20011;51.510;9.942;2023-07-22T13:35:16;19.90;99.90
33673;DHT22;20011;51.510;9.942;2023-07-22T13:37:43;19.90;98.70
33673;DHT22;20011;51.510;9.942;2023-07-22T13:40:11;19.90;98.20
33673;DHT22;20011;51.510;9.942;2023-07-22T13:42:39;19.90;98.80
33673;DHT22;20011;51.510;9.942;2023-07-22T13:45:06;19.90;98.10
33673;DHT22;20011;51.510;9.942;2023-07-22T13:47:34;20.00;98.20
33673;DHT22;20011;51.510;9.942;2023-07-22T13:50:01;20.00;97.50
33673;DHT22;20011;51.510;9.942;2023-07-22T13:52:28;20.00;97.70
33673;DHT22;20011;51.510;9.942;2023-07-22T13:54:59;20.10;97.40
33673;DHT22;20011;51.510;9.942;2023-07-22T13:57:27;20.20;97.70
33673;DHT22;20011;51.510;9.942;2023-07-22T13:59:54;20.00;97.30
33673;DHT22;20011;51.510;9.942;2023-07-22T14:02:21;20.00;97.20
33673;DHT22;20011;51.510;9.942;2023-07-22T14:04:48;20.00;97.90
33673;DHT22;20011;51.510;9.942;2023-07-22T14:07:15;20.00;97.40
33673;DHT22;20011;51.510;9.942;2023-07-22T14:09:44;20.00;97.40
33673;DHT22;20011;51.510;9.942;2023-07-22T14:12:11;20.00;97.10
33673;DHT22;20011;51.510;9.942;2023-07-22T14:14:39;20.00;96.60
33673;DHT22;20011;51.510;9.942;2023-07-22T14:17:06;19.90;96.90
33673;DHT22;20011;51.510;9.942;2023-07-22T14:19:34;20.20;96.10
33673;DHT22;20011;51.510;9.942;2023-07-22T14:22:01;20.00;96.60
33673;DHT22;20011;51.510;9.942;2023-07-22T14:24:28;20.10;94.30
33673;DHT22;20011;51.510;9.942;2023-07-22T14:26:56;20.00;94.50
33673;DHT22;20011;51.510;9.942;2023-07-22T14:29:23;20.10;95.30
33673;DHT22;20011;51.510;9.942;2023-07-22T14:31:56;20.00;96.00
33673;DHT22;20011;51.510;9.942;2023-07-22T14:34:24;20.00;96.30
33673;DHT22;20011;51.510;9.942;2023-07-22T14:36:51;20.00;96.70
33673;DHT22;20011;51.510;9.942;2023-07-22T14:39:18;20.10;96.10
33673;DHT22;20011;51.510;9.942;2023-07-22T14:41:46;20.40;96.20
33673;DHT22;20011;51.510;9.942;2023-07-22T14:44:13;20.00;95.90
33673;DHT22;20011;51.510;9.942;2023-07-22T14:46:40;20.10;95.50
33673;DHT22;20011;51.510;9.942;2023-07-22T14:49:07;20.00;97.10
33673;DHT22;20011;51.510;9.942;2023-07-22T14:51:36;20.50;99.90
33673;DHT22;20011;51.510;9.942;2023-07-22T14:54:04;20.30;97.70
33673;DHT22;20011;51.510;9.942;2023-07-22T14:56:32;20.60;98.60
33673;DHT22;20011;51.510;9.942;2023-07-22T14:58:59;20.10;99.90
33673;DHT22;20011;51.510;9.942;2023-07-22T15:01:26;20.80;99.90
33673;DHT22;20011;51.510;9.942;2023-07-22T15:03:53;20.10;99.90
33673;DHT22;20011;51.510;9.942;2023-07-22T15:06:22;20.20;99.90
33673;DHT22;20011;51.510;9.942;2023-07-22T15:08:51;20.00;99.90
33673;DHT22;20011;51.510;9.942;2023-07-22T15:11:18;20.10;99.90
33673;DHT22;20011;51.510;9.942;2023-07-22T15:13:45;20.10;99.90
33673;DHT22;20011;51.510;9.942;2023-07-22T15:16:12;20.10;98.30
33673;DHT22;20011;51.510;9.942;2023-07-22T15:18:43;20.20;99.90
33673;DHT22;20011;51.510;9.942;2023-07-22T15:21:10;20.10;99.80
33673;DHT22;20011;51.510;9.942;2023-07-22T15:23:37;20.20;98.90
33673;DHT22;20011;51.510;9.942;2023-07-22T15:26:04;20.10;98.70
33673;DHT22;20011;51.510;9.942;2023-07-22T15:28:31;20.10;97.70
33673;DHT22;20011;51.510;9.942;2023-07-22T15:31:01;20.10;97.70
33673;DHT22;20011;51.510;9.942;2023-07-22T15:33:35;20.10;97.90
33673;DHT22;20011;51.510;9.942;2023-07-22T15:36:04;20.20;98.20
33673;DHT22;20011;51.510;9.942;2023-07-22T15:38:31;20.10;96.00
33673;DHT22;20011;51.510;9.942;2023-07-22T15:40:59;20.10;95.90
33673;DHT22;20011;51.510;9.942;2023-07-22T15:43:26;20.40;97.40
33673;DHT22;20011;51.510;9.942;2023-07-22T15:45:53;20.10;98.10
33673;DHT22;20011;51.510;9.942;2023-07-22T15:48:21;20.20;97.20
33673;DHT22;20011;51.510;9.942;2023-07-22T15:50:48;20.40;97.70
33673;DHT22;20011;51.510;9.942;2023-07-22T15:53:16;20.10;99.10
33673;DHT22;20011;51.510;9.942;2023-07-22T15:55:43;20.10;99.60
33673;DHT22;20011;51.510;9.942;2023-07-22T15:58:11;20.40;99.90
33673;DHT22;20011;51.510;9.942;2023-07-22T16:00:38;20.00;98.90
33673;DHT22;20011;51.510;9.942;2023-07-22T16:03:07;20.00;99.40
33673;DHT22;20011;51.510;9.942;2023-07-22T16:05:34;20.00;99.80
33673;DHT22;20011;51.510;9.942;2023-07-22T16:08:02;20.00;98.80
33673;DHT22;20011;51.510;9.942;2023-07-22T16:10:32;20.00;97.40
33673;DHT22;20011;51.510;9.942;2023-07-22T16:13:00;20.00;96.60
33673;DHT22;20011;51.510;9.942;2023-07-22T16:15:28;20.00;96.20
33673;DHT22;20011;51.510;9.942;2023-07-22T16:17:58;20.20;96.40
33673;DHT22;20011;51.510;9.942;2023-07-22T16:20:25;20.00;96.10
33673;DHT22;20011;51.510;9.942;2023-07-22T16:22:55;20.00;95.80
33673;DHT22;20011;51.510;9.942;2023-07-22T16:25:22;20.10;95.70
33673;DHT22;20011;51.510;9.942;2023-07-22T16:27:50;20.10;95.40
33673;DHT22;20011;51.510;9.942;2023-07-22T16:30:17;20.10;95.60
33673;DHT22;20011;51.510;9.942;2023-07-22T16:32:44;20.10;95.60
33673;DHT22;20011;51.510;9.942;2023-07-22T16:35:11;20.10;94.80
33673;DHT22;20011;51.510;9.942;2023-07-22T16:37:39;20.10;94.00
33673;DHT22;20011;51.510;9.942;2023-07-22T16:40:07;20.60;94.70
33673;DHT22;20011;51.510;9.942;2023-07-22T16:42:38;20.20;94.40
33673;DHT22;20011;51.510;9.942;2023-07-22T16:45:07;20.10;95.10
33673;DHT22;20011;51.510;9.942;2023-07-22T16:47:34;20.40;95.30
33673;DHT22;20011;51.510;9.942;2023-07-22T16:50:20;20.10;96.30
33673;DHT22;20011;51.510;9.942;2023-07-22T16:52:50;20.50;96.20
33673;DHT22;20011;51.510;9.942;2023-07-22T16:55:17;20.00;97.90
33673;DHT22;20011;51.510;9.942;2023-07-22T16:57:44;20.00;97.80
33673;DHT22;20011;51.510;9.942;2023-07-22T17:00:12;20.00;98.40
33673;DHT22;20011;51.510;9.942;2023-07-22T17:02:43;20.00;99.50
33673;DHT22;20011;51.510;9.942;2023-07-22T17:05:11;20.00;99.00
33673;DHT22;20011;51.510;9.942;2023-07-22T17:07:39;20.00;98.50
33673;DHT22;20011;51.510;9.942;2023-07-22T17:10:07;20.00;97.60
33673;DHT22;20011;51.510;9.942;2023-07-22T17:12:35;20.50;97.40
33673;DHT22;20011;51.510;9.942;2023-07-22T17:15:05;20.00;96.60
33673;DHT22;20011;51.510;9.942;2023-07-22T17:17:35;20.90;95.80
33673;DHT22;20011;51.510;9.942;2023-07-22T17:20:06;20.10;96.20
33673;DHT22;20011;51.510;9.942;2023-07-22T17:22:33;21.20;95.50
33673;DHT22;20011;51.510;9.942;2023-07-22T17:25:01;20.10;96.80
33673;DHT22;20011;51.510;9.942;2023-07-22T17:27:31;20.10;99.20
33673;DHT22;20011;51.510;9.942;2023-07-22T17:30:06;20.60;99.90
33673;DHT22;20011;51.510;9.942;2023-07-22T17:32:34;20.20;99.90
33673;DHT22;20011;51.510;9.942;2023-07-22T17:35:03;20.20;99.90
33673;DHT22;20011;51.510;9.942;2023-07-22T17:37:34;19.90;99.90
33673;DHT22;20011;51.510;9.942;2023-07-22T17:40:11;20.40;98.40
33673;DHT22;20011;51.510;9.942;2023-07-22T17:42:39;20.10;96.80
33673;DHT22;20011;51.510;9.942;2023-07-22T17:45:07;20.10;98.00
33673;DHT22;20011;51.510;9.942;2023-07-22T17:47:34;19.90;97.90
33673;DHT22;20011;51.510;9.942;2023-07-22T17:50:02;22.10;99.90
33673;DHT22;20011;51.510;9.942;2023-07-22T17:52:29;19.90;99.90
33673;DHT22;20011;51.510;9.942;2023-07-22T17:54:57;19.90;99.90
33673;DHT22;20011;51.510;9.942;2023-07-22T17:57:26;19.90;99.90
33673;DHT22;20011;51.510;9.942;2023-07-22T17:59:54;19.90;99.90
33673;DHT22;20011;51.510;9.942;2023-07-22T18:02:24;19.90;99.90
33673;DHT22;20011;51.510;9.942;2023-07-22T18:04:52;19.90;99.90
33673;DHT22;20011;51.510;9.942;2023-07-22T18:07:22;20.30;99.90
33673;DHT22;20011;51.510;9.942;2023-07-22T18:09:52;19.90;99.90
33673;DHT22;20011;51.510;9.942;2023-07-22T18:12:22;19.80;99.90
33673;DHT22;20011;51.510;9.942;2023-07-22T18:14:50;19.90;99.90
33673;DHT22;20011;51.510;9.942;2023-07-22T18:17:19;19.90;99.90
33673;DHT22;20011;51.510;9.942;2023-07-22T18:19:47;19.40;99.90
33673;DHT22;20011;51.510;9.942;2023-07-22T18:22:15;18.90;99.90
33673;DHT22;20011;51.510;9.942;2023-07-22T18:24:43;20.30;99.90
33673;DHT22;20011;51.510;9.942;2023-07-22T18:27:14;20.20;99.90
33673;DHT22;20011;51.510;9.942;2023-07-22T18:29:45;19.60;99.90
33673;DHT22;20011;51.510;9.942;2023-07-22T18:32:13;19.90;99.90
33673;DHT22;20011;51.510;9.942;2023-07-22T18:34:41;19.60;99.90
33673;DHT22;20011;51.510;9.942;2023-07-22T18:37:11;19.90;99.90
33673;DHT22;20011;51.510;9.942;2023-07-22T18:39:40;19.50;99.90
33673;DHT22;20011;51.510;9.942;2023-07-22T18:42:07;19.90;99.90
33673;DHT22;20011;51.510;9.942;2023-07-22T18:44:35;19.50;99.90
33673;DHT22;20011;51.510;9.942;2023-07-22T18:47:04;19.50;99.90
33673;DHT22;20011;51.510;9.942;2023-07-22T18:49:38;19.50;99.90
33673;DHT22;20011;51.510;9.942;2023-07-22T18:52:07;19.80;99.90
33673;DHT22;20011;51.510;9.942;2023-07-22T18:54:35;19.40;99.90
33673;DHT22;20011;51.510;9.942;2023-07-22T18:57:03;19.50;99.90
33673;DHT22;20011;51.510;9.942;2023-07-22T18:59:30;19.40;99.90
33673;DHT22;20011;51.510;9.942;2023-07-22T19:02:00;19.70;99.90
33673;DHT22;20011;51.510;9.942;2023-07-22T19:04:28;19.40;99.90
33673;DHT22;20011;51.510;9.942;2023-07-22T19:06:56;19.40;99.90
33673;DHT22;20011;51.510;9.942;2023-07-22T19:09:24;19.40;99.90
33673;DHT22;20011;51.510;9.942;2023-07-22T19:11:51;19.40;99.90
33673;DHT22;20011;51.510;9.942;2023-07-22T19:14:18;19.40;99.90
33673;DHT22;20011;51.510;9.942;2023-07-22T19:16:53;19.50;99.90
33673;DHT22;20011;51.510;9.942;2023-07-22T19:19:26;16.80;99.90
33673;DHT22;20011;51.510;9.942;2023-07-22T19:21:53;20.80;99.90
33673;DHT22;20011;51.510;9.942;2023-07-22T19:24:25;19.80;99.90
33673;DHT22;20011;51.510;9.942;2023-07-22T19:26:52;19.60;99.90
33673;DHT22;20011;51.510;9.942;2023-07-22T19:29:20;19.30;99.90
33673;DHT22;20011;51.510;9.942;2023-07-22T19:31:47;19.30;99.90
33673;DHT22;20011;51.510;9.942;2023-07-22T19:34:14;19.30;99.90
33673;DHT22;20011;51.510;9.942;2023-07-22T19:36:41;19.30;99.90
33673;DHT22;20011;51.510;9.942;2023-07-22T19:39:09;19.30;99.90
33673;DHT22;20011;51.510;9.942;2023-07-22T19:41:36;19.30;99.90
33673;DHT22;20011;51.510;9.942;2023-07-22T19:44:05;19.40;99.90
33673;DHT22;20011;51.510;9.942;2023-07-22T19:46:33;19.60;99.90
33673;DHT22;20011;51.510;9.942;2023-07-22T19:49:00;19.50;99.90
33673;DHT22;20011;51.510;9.942;2023-07-22T19:51:27;19.20;99.90
33673;DHT22;20011;51.510;9.942;2023-07-22T19:53:55;19.20;99.90
33673;DHT22;20011;51.510;9.942;2023-07-22T19:56:22;19.20;99.90
33673;DHT22;20011;51.510;9.942;2023-07-22T19:58:49;19.10;99.90
33673;DHT22;20011;51.510;9.942;2023-07-22T20:01:17;19.10;99.90
33673;DHT22;20011;51.510;9.942;2023-07-22T20:03:45;19.20;99.90
33673;DHT22;20011;51.510;9.942;2023-07-22T20:06:12;19.10;99.90
33673;DHT22;20011;51.510;9.942;2023-07-22T20:08:40;19.00;99.90
33673;DHT22;20011;51.510;9.942;2023-07-22T20:11:07;19.00;99.90
33673;DHT22;20011;51.510;9.942;2023-07-22T20:13:35;19.00;99.90
33673;DHT22;20011;51.510;9.942;2023-07-22T20:16:03;18.90;99.90
33673;DHT22;20011;51.510;9.942;2023-07-22T20:20:58;18.90;99.90
33673;DHT22;20011;51.510;9.942;2023-07-22T20:23:26;19.30;99.90
33673;DHT22;20011;51.510;9.942;2023-07-22T20:25:54;18.80;99.90
33673;DHT22;20011;51.510;9.942;2023-07-22T20:28:22;18.80;99.90
33673;DHT22;20011;51.510;9.942;2023-07-22T20:30:49;18.80;99.90
33673;DHT22;20011;51.510;9.942;2023-07-22T20:33:17;18.80;99.90
33673;DHT22;20011;51.510;9.942;2023-07-22T20:35:44;18.70;99.90
33673;DHT22;20011;51.510;9.942;2023-07-22T20:38:12;18.70;99.90
33673;DHT22;20011;51.510;9.942;2023-07-22T20:40:39;18.70;99.90
33673;DHT22;20011;51.510;9.942;2023-07-22T20:43:06;18.70;99.90
33673;DHT22;20011;51.510;9.942;2023-07-22T20:45:33;18.70;99.90
33673;DHT22;20011;51.510;9.942;2023-07-22T20:48:00;18.70;99.90
33673;DHT22;20011;51.510;9.942;2023-07-22T20:50:28;18.60;99.90
33673;DHT22;20011;51.510;9.942;2023-07-22T20:52:55;18.70;99.90
33673;DHT22;20011;51.510;9.942;2023-07-22T20:55:22;18.60;99.90
33673;DHT22;20011;51.510;9.942;2023-07-22T20:57:49;18.60;99.90
33673;DHT22;20011;51.510;9.942;2023-07-22T21:00:17;18.60;99.90
33673;DHT22;20011;51.510;9.942;2023-07-22T21:02:44;18.60;99.90
33673;DHT22;20011;51.510;9.942;2023-07-22T21:10:09;18.60;99.90
33673;DHT22;20011;51.510;9.942;2023-07-22T21:12:37;18.60;99.90
33673;DHT22;20011;51.510;9.942;2023-07-22T21:15:05;18.80;99.90